createdAt,value
2017-07-30T00:01:37.444Z,16.70
2017-07-30T00:04:05.034Z,16.70
2017-07-30T00:06:32.581Z,16.80
2017-07-30T00:09:00.101Z,16.80
2017-07-30T00:11:27.609Z,16.80
2017-07-30T00:13:55.138Z,16.80
2017-07-30T00:16:22.645Z,16.70
2017-07-30T00:18:50.166Z,16.70
2017-07-30T00:21:17.677Z,16.70
2017-07-30T00:23:45.203Z,16.70
2017-07-30T00:26:12.713Z,16.80
2017-07-30T00:28:40.249Z,16.70
2017-07-30T00:31:07.758Z,16.80
2017-07-30T00:33:35.284Z,16.80
2017-07-30T00:36:02.830Z,16.80
2017-07-30T00:38:30.341Z,16.80
2017-07-30T00:40:57.857Z,16.80
2017-07-30T00:43:25.361Z,16.80
2017-07-30T00:45:52.877Z,16.80
2017-07-30T00:48:20.390Z,16.80
2017-07-30T00:50:47.917Z,16.80
2017-07-30T00:53:16.194Z,16.70
2017-07-30T00:55:44.533Z,16.60
2017-07-30T00:58:12.042Z,16.60
2017-07-30T01:00:39.557Z,16.60
2017-07-30T01:03:07.187Z,16.50
2017-07-30T01:05:34.713Z,16.50
2017-07-30T01:08:03.009Z,16.40
2017-07-30T01:10:30.586Z,16.40
2017-07-30T01:12:58.202Z,16.40
2017-07-30T01:15:25.752Z,16.40
2017-07-30T01:17:53.298Z,16.30
2017-07-30T01:20:20.810Z,16.30
2017-07-30T01:22:48.357Z,16.20
2017-07-30T01:25:16.642Z,16.20
2017-07-30T01:27:44.182Z,16.20
2017-07-30T01:30:12.515Z,16.20
2017-07-30T01:32:40.114Z,16.10
2017-07-30T01:35:07.682Z,16.20
2017-07-30T01:37:35.970Z,16.30
2017-07-30T01:40:04.289Z,16.30
2017-07-30T01:42:31.834Z,16.30
2017-07-30T01:44:59.524Z,16.40
2017-07-30T01:47:27.286Z,16.50
2017-07-30T01:49:54.917Z,16.50
2017-07-30T01:52:22.502Z,16.60
2017-07-30T01:54:50.154Z,16.60
2017-07-30T01:57:17.807Z,16.80
2017-07-30T01:59:45.424Z,16.80
2017-07-30T02:02:12.958Z,16.80
2017-07-30T02:04:40.498Z,16.80
2017-07-30T02:07:08.035Z,16.80
2017-07-30T02:09:35.629Z,16.80
2017-07-30T02:12:03.267Z,16.90
2017-07-30T02:14:30.929Z,16.90
2017-07-30T02:16:58.847Z,16.80
2017-07-30T02:19:26.746Z,16.80
2017-07-30T02:21:56.170Z,16.80
2017-07-30T02:24:23.797Z,16.70
2017-07-30T02:26:51.390Z,16.70
2017-07-30T02:29:19.117Z,16.70
2017-07-30T02:31:46.707Z,16.70
2017-07-30T02:34:14.447Z,16.70
2017-07-30T02:36:41.958Z,16.70
2017-07-30T02:39:09.626Z,16.80
2017-07-30T02:41:37.326Z,16.80
2017-07-30T02:44:04.990Z,16.90
2017-07-30T02:46:32.581Z,17.00
2017-07-30T02:49:00.132Z,17.00
2017-07-30T02:51:28.533Z,17.30
2017-07-30T02:53:56.246Z,17.30
2017-07-30T02:56:23.912Z,17.40
2017-07-30T02:58:51.498Z,17.50
2017-07-30T03:01:19.788Z,17.60
2017-07-30T03:03:48.151Z,17.60
2017-07-30T03:06:15.721Z,17.60
2017-07-30T03:08:43.995Z,17.60
2017-07-30T03:11:12.285Z,17.60
2017-07-30T03:13:39.793Z,17.50
2017-07-30T03:16:07.358Z,17.50
2017-07-30T03:18:34.893Z,17.50
2017-07-30T03:21:02.470Z,17.50
2017-07-30T03:23:30.063Z,17.50
2017-07-30T03:25:57.570Z,17.50
2017-07-30T03:28:25.085Z,17.50
2017-07-30T03:30:52.614Z,17.50
2017-07-30T03:33:20.193Z,17.50
2017-07-30T03:35:47.725Z,17.50
2017-07-30T03:38:15.270Z,17.50
2017-07-30T03:40:42.801Z,17.50
2017-07-30T03:43:10.364Z,17.50
2017-07-30T03:45:37.871Z,17.50
2017-07-30T03:48:05.393Z,17.40
2017-07-30T03:50:32.934Z,17.40
2017-07-30T03:53:01.323Z,17.40
2017-07-30T03:55:29.683Z,17.50
2017-07-30T03:57:58.021Z,17.50
2017-07-30T04:00:25.670Z,17.50
2017-07-30T04:02:53.394Z,17.60
2017-07-30T04:05:21.675Z,17.60
2017-07-30T04:07:49.953Z,17.60
2017-07-30T04:10:18.277Z,17.60
2017-07-30T04:12:45.837Z,17.50
2017-07-30T04:15:13.490Z,17.50
2017-07-30T04:17:41.014Z,17.50
2017-07-30T04:20:09.405Z,17.60
2017-07-30T04:22:36.913Z,17.60
2017-07-30T04:25:04.445Z,17.70
2017-07-30T04:27:31.982Z,17.70
2017-07-30T04:29:59.553Z,17.70
2017-07-30T04:32:27.083Z,17.70
2017-07-30T04:34:55.404Z,17.70
2017-07-30T04:37:22.957Z,17.70
2017-07-30T04:39:50.489Z,17.80
2017-07-30T04:42:18.862Z,17.90
2017-07-30T04:44:47.160Z,18.00
2017-07-30T04:47:14.654Z,18.00
2017-07-30T04:49:42.219Z,18.10
2017-07-30T04:52:09.758Z,18.30
2017-07-30T04:54:37.269Z,18.40
2017-07-30T04:57:04.778Z,18.60
2017-07-30T04:59:32.293Z,18.80
2017-07-30T05:01:59.785Z,19.00
2017-07-30T05:04:27.303Z,19.20
2017-07-30T05:06:54.806Z,19.40
2017-07-30T05:09:22.320Z,19.60
2017-07-30T05:11:49.823Z,19.80
2017-07-30T05:14:17.342Z,19.90
2017-07-30T05:16:44.837Z,20.10
2017-07-30T05:19:12.324Z,20.40
2017-07-30T05:21:39.846Z,20.60
2017-07-30T05:24:07.346Z,20.80
2017-07-30T05:26:34.852Z,21.10
2017-07-30T05:29:02.370Z,21.30
2017-07-30T05:31:29.883Z,21.40
2017-07-30T05:33:57.383Z,21.50
2017-07-30T05:36:24.894Z,21.60
2017-07-30T05:38:52.384Z,21.60
2017-07-30T05:41:19.899Z,21.60
2017-07-30T05:43:47.398Z,21.60
2017-07-30T05:46:15.069Z,21.80
2017-07-30T05:48:42.561Z,22.00
2017-07-30T05:51:10.073Z,22.20
2017-07-30T05:53:37.567Z,22.30
2017-07-30T05:56:05.085Z,22.50
2017-07-30T05:58:32.578Z,22.50
2017-07-30T06:01:00.095Z,22.60
2017-07-30T06:03:27.614Z,22.50
2017-07-30T06:05:55.130Z,22.50
2017-07-30T06:08:22.630Z,22.40
2017-07-30T06:10:50.924Z,22.20
2017-07-30T06:13:19.182Z,22.30
2017-07-30T06:15:46.690Z,22.30
2017-07-30T06:18:14.198Z,22.30
2017-07-30T06:20:42.474Z,22.20
2017-07-30T06:23:09.998Z,22.20
2017-07-30T06:25:37.535Z,22.20
2017-07-30T06:28:05.061Z,22.30
2017-07-30T06:30:33.335Z,22.30
2017-07-30T06:33:01.626Z,22.30
2017-07-30T06:35:29.898Z,22.40
2017-07-30T06:37:58.183Z,22.40
2017-07-30T06:40:26.448Z,22.40
2017-07-30T06:42:54.739Z,22.40
2017-07-30T06:45:22.278Z,22.50
2017-07-30T06:47:49.809Z,22.30
2017-07-30T06:50:17.301Z,22.40
2017-07-30T06:52:45.581Z,22.50
2017-07-30T06:55:13.090Z,22.40
2017-07-30T06:57:40.609Z,22.50
2017-07-30T07:00:08.898Z,22.70
2017-07-30T07:02:36.428Z,22.70
2017-07-30T07:05:03.938Z,22.70
2017-07-30T07:07:31.455Z,22.80
2017-07-30T07:09:59.758Z,22.80
2017-07-30T07:12:27.299Z,22.80
2017-07-30T07:14:56.434Z,23.20
2017-07-30T07:17:23.961Z,23.20
2017-07-30T07:19:51.489Z,23.30
2017-07-30T07:22:19.045Z,23.40
2017-07-30T07:24:46.570Z,23.50
2017-07-30T07:27:14.098Z,23.60
2017-07-30T07:29:42.378Z,23.90
2017-07-30T07:32:09.898Z,23.80
2017-07-30T07:34:37.450Z,24.00
2017-07-30T07:37:10.005Z,24.00
2017-07-30T07:47:17.039Z,24.70
2017-07-30T07:49:55.462Z,25.70
2017-07-30T07:52:23.031Z,25.70
2017-07-30T07:54:50.571Z,25.90
2017-07-30T07:57:18.069Z,26.30
2017-07-30T07:59:45.593Z,26.90
2017-07-30T08:02:13.110Z,27.60
2017-07-30T08:04:40.625Z,27.80
2017-07-30T08:07:08.122Z,27.80
2017-07-30T08:09:35.633Z,28.20
2017-07-30T08:12:03.125Z,28.20
2017-07-30T08:14:30.642Z,28.40
2017-07-30T08:16:58.141Z,28.60
2017-07-30T08:19:25.669Z,28.70
2017-07-30T08:21:53.174Z,28.30
2017-07-30T08:24:20.670Z,28.20
2017-07-30T08:26:48.189Z,28.70
2017-07-30T08:29:15.737Z,28.80
2017-07-30T08:31:43.244Z,28.90
2017-07-30T08:34:10.733Z,28.90
2017-07-30T08:36:38.242Z,28.80
2017-07-30T08:39:05.738Z,29.30
2017-07-30T08:41:33.246Z,29.70
2017-07-30T08:44:00.738Z,30.50
2017-07-30T08:46:28.245Z,31.00
2017-07-30T08:48:55.738Z,31.20
2017-07-30T08:51:24.009Z,31.00
2017-07-30T08:53:51.498Z,31.00
2017-07-30T08:56:19.013Z,30.80
2017-07-30T08:58:46.500Z,30.70
2017-07-30T09:01:14.782Z,30.50
2017-07-30T09:03:43.042Z,30.20
2017-07-30T09:06:10.546Z,30.20
2017-07-30T09:08:38.038Z,30.10
2017-07-30T09:11:05.536Z,30.00
2017-07-30T09:13:33.789Z,29.90
2017-07-30T09:16:01.317Z,29.90
2017-07-30T09:18:28.805Z,30.30
2017-07-30T09:20:56.285Z,30.50
2017-07-30T09:23:24.556Z,30.60
2017-07-30T09:25:52.814Z,30.70
2017-07-30T09:28:20.337Z,30.70
2017-07-30T09:30:47.841Z,30.80
2017-07-30T09:33:15.362Z,30.90
2017-07-30T09:35:42.849Z,31.10
2017-07-30T09:38:10.344Z,31.20
2017-07-30T09:40:37.835Z,31.30
2017-07-30T09:43:05.336Z,31.40
2017-07-30T09:45:32.833Z,31.40
2017-07-30T09:48:00.351Z,31.20
2017-07-30T09:50:28.802Z,31.00
2017-07-30T09:52:56.638Z,30.80
2017-07-30T09:55:24.317Z,30.70
2017-07-30T09:57:51.927Z,30.50
2017-07-30T10:00:20.198Z,29.90
2017-07-30T10:02:47.724Z,29.90
2017-07-30T10:05:15.215Z,29.70
2017-07-30T10:07:42.713Z,29.60
2017-07-30T10:10:10.257Z,29.40
2017-07-30T10:12:37.751Z,29.20
2017-07-30T10:15:05.276Z,29.10
2017-07-30T10:17:33.534Z,28.90
2017-07-30T10:20:01.041Z,28.90
2017-07-30T10:22:28.536Z,28.90
2017-07-30T10:24:56.050Z,28.90
2017-07-30T10:27:23.557Z,28.90
2017-07-30T10:29:51.065Z,29.10
2017-07-30T10:32:18.556Z,29.20
2017-07-30T10:34:46.062Z,29.30
2017-07-30T10:37:14.317Z,29.50
2017-07-30T10:39:41.831Z,29.50
2017-07-30T10:42:09.331Z,29.50
2017-07-30T10:44:36.844Z,29.60
2017-07-30T10:47:04.346Z,29.60
2017-07-30T10:49:31.854Z,29.60
2017-07-30T10:51:59.361Z,29.60
2017-07-30T10:54:26.849Z,29.50
2017-07-30T10:56:55.122Z,29.80
2017-07-30T10:59:22.615Z,29.70
2017-07-30T11:01:50.130Z,29.80
2017-07-30T11:04:17.624Z,29.90
2017-07-30T11:06:45.143Z,29.90
2017-07-30T11:09:12.637Z,29.90
2017-07-30T11:11:40.908Z,29.70
2017-07-30T11:14:08.435Z,29.70
2017-07-30T11:16:35.941Z,29.60
2017-07-30T11:19:03.475Z,29.60
2017-07-30T11:21:31.765Z,29.80
2017-07-30T11:24:00.052Z,29.90
2017-07-30T11:26:27.638Z,29.90
2017-07-30T11:28:55.159Z,29.90
2017-07-30T11:31:23.453Z,29.80
2017-07-30T11:33:50.980Z,29.80
2017-07-30T11:36:19.302Z,30.00
2017-07-30T11:38:46.830Z,30.00
2017-07-30T11:41:15.097Z,30.10
2017-07-30T11:43:42.608Z,30.10
2017-07-30T11:46:10.105Z,30.10
2017-07-30T11:48:38.493Z,30.20
2017-07-30T11:51:05.990Z,30.20
2017-07-30T11:53:33.493Z,30.20
2017-07-30T11:56:00.986Z,30.20
2017-07-30T11:58:29.262Z,30.40
2017-07-30T12:00:56.794Z,30.40
2017-07-30T12:03:24.366Z,30.50
2017-07-30T12:05:51.865Z,30.60
2017-07-30T12:08:19.374Z,30.50
2017-07-30T12:10:46.875Z,30.40
2017-07-30T12:13:14.380Z,30.50
2017-07-30T12:15:41.892Z,30.50
2017-07-30T12:18:09.382Z,30.50
2017-07-30T12:20:36.889Z,30.30
2017-07-30T12:23:04.394Z,30.30
2017-07-30T12:25:31.911Z,30.40
2017-07-30T12:28:00.174Z,30.50
2017-07-30T12:30:27.679Z,30.50
2017-07-30T12:32:55.170Z,30.50
2017-07-30T12:35:22.701Z,30.60
2017-07-30T12:37:50.197Z,30.40
2017-07-30T12:40:17.694Z,30.30
2017-07-30T12:42:45.221Z,30.40
2017-07-30T12:45:13.506Z,30.70
2017-07-30T12:47:41.015Z,30.60
2017-07-30T12:50:08.506Z,30.80
2017-07-30T12:52:36.062Z,30.80
2017-07-30T12:55:03.565Z,30.50
2017-07-30T12:57:31.833Z,29.90
2017-07-30T13:00:00.088Z,29.70
2017-07-30T13:02:27.594Z,29.60
2017-07-30T13:04:55.085Z,29.70
2017-07-30T13:07:22.568Z,29.90
2017-07-30T13:09:50.068Z,29.90
2017-07-30T13:12:17.549Z,30.00
2017-07-30T13:14:45.058Z,30.10
2017-07-30T13:17:12.550Z,30.40
2017-07-30T13:19:40.059Z,30.60
2017-07-30T13:22:07.549Z,30.80
2017-07-30T13:24:35.818Z,30.80
2017-07-30T13:27:04.098Z,30.80
2017-07-30T13:29:32.399Z,30.90
2017-07-30T13:31:59.885Z,30.80
2017-07-30T13:34:27.393Z,30.90
2017-07-30T13:36:54.906Z,31.00
2017-07-30T13:39:22.410Z,31.10
2017-07-30T13:41:50.690Z,31.00
2017-07-30T13:44:18.949Z,31.10
2017-07-30T13:46:46.482Z,31.10
2017-07-30T13:49:13.978Z,30.90
2017-07-30T13:51:41.497Z,30.70
2017-07-30T13:54:08.994Z,30.70
2017-07-30T13:56:37.289Z,30.70
2017-07-30T13:59:04.781Z,30.70
2017-07-30T14:01:32.306Z,30.70
2017-07-30T14:03:59.801Z,30.60
2017-07-30T14:06:27.300Z,30.60
2017-07-30T14:08:55.573Z,30.40
2017-07-30T14:11:23.841Z,30.50
2017-07-30T14:13:52.123Z,30.50
2017-07-30T14:16:20.390Z,30.70
2017-07-30T14:18:47.893Z,30.70
2017-07-30T14:21:15.377Z,30.80
2017-07-30T14:23:42.886Z,31.00
2017-07-30T14:26:11.155Z,31.00
2017-07-30T14:28:39.456Z,30.90
2017-07-30T14:31:06.955Z,30.90
2017-07-30T14:33:34.446Z,31.00
2017-07-30T14:36:02.718Z,31.10
2017-07-30T14:38:30.218Z,31.10
2017-07-30T14:40:57.738Z,31.00
2017-07-30T14:43:25.237Z,30.90
2017-07-30T14:45:52.747Z,30.90
2017-07-30T14:48:20.246Z,30.90
2017-07-30T14:50:47.767Z,31.10
2017-07-30T14:53:15.282Z,31.10
2017-07-30T14:55:42.818Z,31.30
2017-07-30T14:58:10.321Z,31.40
2017-07-30T15:00:37.822Z,31.50
2017-07-30T15:03:06.102Z,31.50
2017-07-30T15:05:34.360Z,31.40
2017-07-30T15:08:01.867Z,31.40
2017-07-30T15:10:29.362Z,31.40
2017-07-30T15:12:56.869Z,31.10
2017-07-30T15:15:24.370Z,30.90
2017-07-30T15:17:51.907Z,31.10
2017-07-30T15:20:19.437Z,31.30
2017-07-30T15:22:47.762Z,31.60
2017-07-30T15:25:15.261Z,31.50
2017-07-30T15:27:43.522Z,31.80
2017-07-30T15:30:11.034Z,31.70
2017-07-30T15:32:38.541Z,31.90
2017-07-30T15:35:06.054Z,31.80
2017-07-30T15:37:33.562Z,31.80
2017-07-30T15:40:01.066Z,31.40
2017-07-30T15:42:28.562Z,31.30
2017-07-30T15:44:56.071Z,31.20
2017-07-30T15:47:23.571Z,31.10
2017-07-30T15:49:51.098Z,31.00
2017-07-30T15:52:18.594Z,30.80
2017-07-30T15:54:46.094Z,30.70
2017-07-30T15:57:14.370Z,30.40
2017-07-30T15:59:42.636Z,30.40
2017-07-30T16:02:10.926Z,30.40
2017-07-30T16:04:39.181Z,30.30
2017-07-30T16:07:06.690Z,30.20
2017-07-30T16:09:34.185Z,30.20
2017-07-30T16:12:01.689Z,30.20
2017-07-30T16:14:29.947Z,29.80
2017-07-30T16:16:57.469Z,29.80
2017-07-30T16:19:24.965Z,29.70
2017-07-30T16:21:52.490Z,29.60
2017-07-30T16:24:20.010Z,29.50
2017-07-30T16:26:47.506Z,29.50
2017-07-30T16:29:15.021Z,29.50
2017-07-30T16:31:42.535Z,29.40
2017-07-30T16:34:10.037Z,29.10
2017-07-30T16:36:38.292Z,27.50
2017-07-30T16:39:05.814Z,27.50
2017-07-30T16:41:33.318Z,27.30
2017-07-30T16:44:01.710Z,26.90
2017-07-30T16:46:29.968Z,26.70
2017-07-30T16:48:57.466Z,26.70
2017-07-30T16:51:24.985Z,26.40
2017-07-30T16:53:52.481Z,26.20
2017-07-30T16:56:19.998Z,26.00
2017-07-30T16:58:47.504Z,25.80
2017-07-30T17:01:15.013Z,25.70
2017-07-30T17:03:42.507Z,25.60
2017-07-30T17:06:10.785Z,24.80
2017-07-30T17:08:38.292Z,24.80
2017-07-30T17:11:05.824Z,24.30
2017-07-30T17:13:33.318Z,23.60
2017-07-30T17:16:00.817Z,22.60
2017-07-30T17:18:29.096Z,21.20
2017-07-30T17:20:57.362Z,20.90
2017-07-30T17:23:25.638Z,20.80
2017-07-30T17:25:53.904Z,20.70
2017-07-30T17:28:21.421Z,20.60
2017-07-30T17:30:48.917Z,20.50
2017-07-30T17:33:16.435Z,20.50
2017-07-30T17:35:43.933Z,20.50
2017-07-30T17:38:11.613Z,20.50
2017-07-30T17:40:39.886Z,20.70
2017-07-30T17:43:07.385Z,20.70
2017-07-30T17:45:34.912Z,20.70
2017-07-30T17:48:03.178Z,20.90
2017-07-30T17:50:30.690Z,20.90
2017-07-30T17:52:58.202Z,21.00
2017-07-30T17:55:25.736Z,21.00
2017-07-30T17:57:53.238Z,21.10
2017-07-30T18:00:20.758Z,21.10
2017-07-30T18:02:48.262Z,21.10
2017-07-30T18:05:15.794Z,21.00
2017-07-30T18:07:43.288Z,20.90
2017-07-30T18:10:10.781Z,20.80
2017-07-30T18:12:38.297Z,20.70
2017-07-30T18:15:05.794Z,20.70
2017-07-30T18:17:33.308Z,20.60
2017-07-30T18:20:01.565Z,20.80
2017-07-30T18:22:29.069Z,20.70
2017-07-30T18:27:35.946Z,20.90
2017-07-30T18:30:06.429Z,20.80
2017-07-30T18:32:46.014Z,20.80
2017-07-30T18:38:00.746Z,20.60
2017-07-30T18:40:43.502Z,20.40
2017-07-30T18:43:13.212Z,19.70
2017-07-30T18:45:42.138Z,18.60
2017-07-30T18:48:12.674Z,18.60
2017-07-30T18:50:42.258Z,18.60
2017-07-30T18:53:11.172Z,18.70
2017-07-30T18:55:40.276Z,18.70
2017-07-30T18:58:20.182Z,18.50
2017-07-30T19:00:49.805Z,18.40
2017-07-30T19:03:17.619Z,18.40
2017-07-30T19:05:46.691Z,18.40
2017-07-30T19:08:15.880Z,18.40
2017-07-30T19:10:48.414Z,18.40
2017-07-30T19:13:17.989Z,18.40
2017-07-30T19:15:48.367Z,18.40
2017-07-30T19:18:17.081Z,18.30
2017-07-30T19:20:44.963Z,18.30
2017-07-30T19:23:12.508Z,18.30
2017-07-30T19:25:40.131Z,18.30
2017-07-30T19:28:08.421Z,18.30
2017-07-30T19:30:36.688Z,18.20
2017-07-30T19:33:04.352Z,18.10
2017-07-30T19:35:32.632Z,18.00
2017-07-30T19:38:00.947Z,18.00
2017-07-30T19:40:28.466Z,18.00
2017-07-30T19:42:55.982Z,17.90
2017-07-30T19:45:23.493Z,17.80
2017-07-30T19:47:51.761Z,17.70
2017-07-30T19:50:20.070Z,17.70
2017-07-30T19:52:47.586Z,17.60
2017-07-30T19:55:15.106Z,17.60
2017-07-30T19:57:42.614Z,17.50
2017-07-30T20:00:10.906Z,17.50
2017-07-30T20:02:39.175Z,17.40
2017-07-30T20:05:07.479Z,17.40
2017-07-30T20:07:34.991Z,17.40
2017-07-30T20:10:02.497Z,17.30
2017-07-30T20:12:30.033Z,17.30
2017-07-30T20:14:58.301Z,17.20
2017-07-30T20:17:26.610Z,17.20
2017-07-30T20:19:54.208Z,17.10
2017-07-30T20:22:21.756Z,17.20
2017-07-30T20:24:49.275Z,17.20
2017-07-30T20:27:16.809Z,17.20
2017-07-30T20:29:44.329Z,17.30
2017-07-30T20:32:11.877Z,17.30
2017-07-30T20:34:39.380Z,17.30
2017-07-30T20:37:06.908Z,17.30
2017-07-30T20:39:34.431Z,17.30
2017-07-30T20:42:02.709Z,17.30
2017-07-30T20:44:31.012Z,17.30
2017-07-30T20:46:58.517Z,17.20
2017-07-30T20:49:26.048Z,17.20
2017-07-30T20:51:53.556Z,17.20
2017-07-30T20:54:21.869Z,17.20
2017-07-30T20:56:49.377Z,17.10
2017-07-30T20:59:16.913Z,17.10
2017-07-30T21:01:44.417Z,17.10
2017-07-30T21:04:12.689Z,17.20
2017-07-30T21:06:40.973Z,17.20
2017-07-30T21:09:08.487Z,17.10
2017-07-30T21:11:36.002Z,17.20
2017-07-30T21:14:03.523Z,17.10
2017-07-30T21:16:31.219Z,17.00
2017-07-30T21:18:59.403Z,16.90
2017-07-30T21:21:26.957Z,16.90
2017-07-30T21:23:54.556Z,16.90
2017-07-30T21:26:22.173Z,16.90
2017-07-30T21:28:50.593Z,16.90
2017-07-30T21:31:18.118Z,16.90
2017-07-30T21:33:45.672Z,16.90
2017-07-30T21:36:14.117Z,17.00
2017-07-30T21:38:41.682Z,17.00
2017-07-30T21:41:09.355Z,17.00
2017-07-30T21:43:36.918Z,17.00
2017-07-30T21:46:04.634Z,17.10
2017-07-30T21:48:32.203Z,17.10
2017-07-30T21:50:59.731Z,17.10
2017-07-30T21:53:27.310Z,17.00
2017-07-30T21:55:54.861Z,16.90
2017-07-30T21:58:22.425Z,16.80
2017-07-30T22:00:49.982Z,16.80
2017-07-30T22:03:17.615Z,16.80
2017-07-30T22:05:45.393Z,16.80
2017-07-30T22:08:13.901Z,16.70
2017-07-30T22:10:41.478Z,16.70
2017-07-30T22:13:09.257Z,16.70
2017-07-30T22:15:36.961Z,16.70
2017-07-30T22:18:05.331Z,16.70
2017-07-30T22:20:32.914Z,16.70
2017-07-30T22:23:00.543Z,16.80
2017-07-30T22:25:28.142Z,16.90
2017-07-30T22:27:55.796Z,17.00
2017-07-30T22:30:23.365Z,16.90
2017-07-30T22:32:50.957Z,16.90
2017-07-30T22:35:18.551Z,16.80
2017-07-30T22:37:46.241Z,16.80
2017-07-30T22:40:13.913Z,16.90
2017-07-30T22:42:42.512Z,17.00
2017-07-30T22:45:10.215Z,17.10
2017-07-30T22:47:37.781Z,17.00
2017-07-30T22:50:05.374Z,17.00
2017-07-30T22:52:33.784Z,17.10
2017-07-30T22:55:01.461Z,17.10
2017-07-30T22:57:29.197Z,17.10
2017-07-30T22:59:56.945Z,17.00
2017-07-30T23:02:24.501Z,17.00
2017-07-30T23:04:52.855Z,17.00
2017-07-30T23:07:20.472Z,17.00
2017-07-30T23:09:48.103Z,17.00
2017-07-30T23:12:17.168Z,16.90
2017-07-30T23:14:45.663Z,16.90
2017-07-30T23:17:13.663Z,16.90
2017-07-30T23:19:42.214Z,16.90
2017-07-30T23:22:09.936Z,16.90
2017-07-30T23:24:40.788Z,16.90
2017-07-30T23:27:08.616Z,16.90
2017-07-30T23:29:36.642Z,17.00
2017-07-30T23:32:04.357Z,17.00
2017-07-30T23:34:32.034Z,17.10
2017-07-30T23:36:59.884Z,17.10
2017-07-30T23:39:29.284Z,17.30
2017-07-30T23:41:59.953Z,17.30
2017-07-30T23:44:27.652Z,17.30
2017-07-30T23:46:59.761Z,17.40
2017-07-30T23:49:28.529Z,17.40
2017-07-30T23:51:57.355Z,17.50
2017-07-30T23:54:25.236Z,17.50
2017-07-30T23:56:53.820Z,17.60
2017-07-30T23:59:22.558Z,17.70
